Time;durP1;ratioP1;P1;durP2;ratioP2;P2;SDS_P1;SDS_P2;PMS_P1;PMS_P2;Temp;Humidity;BMP_temperature;BMP_pressure;BME280_temperature;BME280_humidity;BME280_pressure;Samples;Min_cycle;Max_cycle;Signal;HPM_P1;HPM_P2
2022/09/03 00:01:42;;;;;;;7.10;1.30;;;18.70;48.50;;;;;;9180953;19;20019;-68
2022/09/03 00:04:57;;;;;;;2.28;1.30;;;18.60;48.50;;;;;;9180234;19;20598;-67
2022/09/03 00:08:05;;;;;;;1.63;1.35;;;18.60;48.60;;;;;;9176168;19;20482;-67
2022/09/03 00:11:15;;;;;;;2.67;1.50;;;18.60;48.60;;;;;;9174705;19;20014;-65
2022/09/03 00:14:24;;;;;;;1.63;1.13;;;18.50;48.70;;;;;;9175545;19;20014;-68
2022/09/03 00:17:38;;;;;;;3.35;1.45;;;18.50;48.70;;;;;;9176828;19;20022;-67
2022/09/03 00:20:45;;;;;;;7.35;1.52;;;18.40;48.80;;;;;;9175823;19;20049;-68
2022/09/03 00:23:52;;;;;;;5.25;1.02;;;18.40;48.80;;;;;;9174110;19;20014;-66
2022/09/03 00:27:02;;;;;;;2.22;1.27;;;18.40;48.90;;;;;;9175529;19;20018;-66
2022/09/03 00:30:11;;;;;;;2.90;1.48;;;18.30;48.90;;;;;;9174909;19;20018;-65
2022/09/03 00:33:28;;;;;;;2.88;1.40;;;18.30;49.00;;;;;;9174477;19;20352;-68
2022/09/03 00:36:41;;;;;;;6.72;1.30;;;18.30;49.10;;;;;;9171120;19;20038;-65
2022/09/03 00:39:45;;;;;;;3.60;1.52;;;18.20;49.00;;;;;;9174569;19;20022;-67
2022/09/03 00:43:00;;;;;;;9.48;1.40;;;18.20;49.10;;;;;;9173797;19;20048;-67
2022/09/03 00:46:18;;;;;;;4.18;1.20;;;18.20;49.20;;;;;;9174058;19;20049;-67
2022/09/03 00:49:42;;;;;;;3.22;1.13;;;18.20;49.30;;;;;;9172381;19;20028;-66
2022/09/03 00:52:58;;;;;;;5.40;1.15;;;18.10;49.30;;;;;;9173607;19;20021;-68
2022/09/03 00:56:20;;;;;;;6.85;0.90;;;18.00;49.40;;;;;;9174087;19;20749;-67
2022/09/03 00:59:34;;;;;;;3.78;1.10;;;18.00;49.30;;;;;;9171737;19;20022;-67
2022/09/03 01:02:47;;;;;;;;;;;18.00;49.40;;;;;;9174929;19;20011;-67
2022/09/03 01:06:10;;;;;;;1.98;1.00;;;18.00;49.30;;;;;;9174683;19;19926;-68
2022/09/03 01:09:30;;;;;;;1.95;0.85;;;17.90;49.40;;;;;;9173102;19;20333;-66
2022/09/03 01:12:41;;;;;;;1.95;1.15;;;17.90;49.80;;;;;;9173177;19;20029;-68
2022/09/03 01:15:56;;;;;;;2.63;1.10;;;17.90;49.50;;;;;;9174321;19;20023;-68
2022/09/03 01:19:13;;;;;;;4.10;1.10;;;17.80;49.60;;;;;;9173115;19;20019;-68
2022/09/03 01:22:44;;;;;;;4.35;0.85;;;17.80;49.60;;;;;;9173405;19;20022;-67
2022/09/03 01:25:56;;;;;;;6.43;0.98;;;17.70;49.70;;;;;;9173927;19;20038;-66
2022/09/03 01:29:15;;;;;;;2.40;0.93;;;17.70;49.70;;;;;;9170993;19;20367;-68
2022/09/03 01:32:27;;;;;;;2.45;1.33;;;17.70;49.80;;;;;;9172733;19;20022;-68
2022/09/03 01:35:38;;;;;;;2.47;1.10;;;17.60;49.80;;;;;;9176195;19;20386;-69
2022/09/03 01:38:48;;;;;;;4.75;0.95;;;17.60;49.80;;;;;;9176781;19;20368;-67
2022/09/03 01:42:15;;;;;;;3.22;1.05;;;17.60;49.90;;;;;;9181210;19;20025;-69
2022/09/03 01:45:49;;;;;;;1.42;0.95;;;17.50;50.00;;;;;;9182426;19;20028;-69
2022/09/03 01:49:09;;;;;;;2.95;1.08;;;17.50;50.20;;;;;;9179203;19;20015;-68
2022/09/03 01:52:19;;;;;;;4.68;1.27;;;17.50;50.10;;;;;;9181094;19;20384;-69
2022/09/03 01:55:34;;;;;;;1.65;1.02;;;17.40;50.00;;;;;;9181971;19;20014;-69
2022/09/03 01:58:45;;;;;;;2.20;1.17;;;17.40;50.20;;;;;;9181469;19;20014;-65
2022/09/03 02:01:59;;;;;;;1.45;1.05;;;17.40;50.20;;;;;;9180881;19;20018;-69
2022/09/03 02:05:07;;;;;;;2.17;1.17;;;17.40;50.30;;;;;;9183520;19;20052;-68
2022/09/03 02:08:12;;;;;;;7.63;1.10;;;17.30;50.20;;;;;;9180569;19;20370;-69
2022/09/03 02:11:17;;;;;;;3.55;0.75;;;17.30;50.30;;;;;;9181398;19;20010;-69
2022/09/03 02:14:23;;;;;;;6.45;1.27;;;17.30;50.40;;;;;;9180783;19;20042;-68
2022/09/03 02:17:31;;;;;;;3.47;1.17;;;17.30;50.40;;;;;;9181665;19;20015;-68
2022/09/03 02:20:36;;;;;;;3.72;1.17;;;17.20;50.40;;;;;;9178789;19;20022;-67
2022/09/03 02:23:42;;;;;;;1.95;0.93;;;17.20;50.40;;;;;;9180109;19;20046;-67
2022/09/03 02:26:48;;;;;;;2.90;1.15;;;17.20;50.50;;;;;;9179656;19;20025;-69
2022/09/03 02:29:53;;;;;;;2.92;0.90;;;17.10;50.50;;;;;;9177793;19;20036;-68
2022/09/03 02:33:01;;;;;;;1.77;1.15;;;17.10;50.50;;;;;;9180860;19;20018;-67
2022/09/03 02:36:08;;;;;;;4.00;1.20;;;17.10;50.60;;;;;;9176024;19;20013;-67
2022/09/03 02:39:14;;;;;;;1.98;1.05;;;17.10;50.70;;;;;;9179309;19;20515;-67
2022/09/03 02:42:20;;;;;;;1.35;1.00;;;17.00;50.60;;;;;;9179532;19;20094;-69
2022/09/03 02:45:30;;;;;;;0.82;0.80;;;17.00;50.70;;;;;;9179292;19;20021;-68
2022/09/03 02:48:40;;;;;;;1.90;1.15;;;17.00;50.80;;;;;;9177357;19;20048;-69
2022/09/03 02:51:46;;;;;;;2.67;0.85;;;17.00;50.80;;;;;;9178911;19;20014;-68
2022/09/03 02:54:51;;;;;;;1.52;1.00;;;16.90;50.80;;;;;;9178720;19;20023;-69
2022/09/03 02:57:56;;;;;;;3.28;1.08;;;16.90;50.90;;;;;;9178477;19;20025;-67
2022/09/03 03:01:01;;;;;;;2.58;1.02;;;16.90;50.90;;;;;;9177180;19;20042;-69
2022/09/03 03:04:08;;;;;;;5.78;1.00;;;16.80;50.90;;;;;;9178582;19;20575;-68
2022/09/03 03:07:13;;;;;;;2.25;1.02;;;16.80;50.90;;;;;;9179465;19;20056;-68
2022/09/03 03:10:18;;;;;;;3.03;0.80;;;16.80;51.00;;;;;;9177264;19;20025;-68
2022/09/03 03:13:23;;;;;;;1.23;0.82;;;16.70;51.00;;;;;;9180081;19;20024;-68
2022/09/03 03:16:28;;;;;;;3.47;0.85;;;16.70;51.10;;;;;;9178871;19;20507;-67
2022/09/03 03:19:36;;;;;;;5.28;1.20;;;16.70;51.10;;;;;;9179199;19;20022;-66
2022/09/03 03:22:41;;;;;;;2.67;0.90;;;16.70;51.20;;;;;;9177528;19;20360;-67
2022/09/03 03:25:46;;;;;;;4.57;1.10;;;16.60;51.20;;;;;;9177872;19;20029;-69
2022/09/03 03:28:57;;;;;;;1.48;0.68;;;16.60;51.30;;;;;;9176822;19;20018;-70
2022/09/03 03:32:02;;;;;;;1.77;1.15;;;16.60;51.40;;;;;;9178393;19;20019;-69
2022/09/03 03:35:10;;;;;;;5.78;0.90;;;16.50;51.40;;;;;;9177296;19;20030;-67
2022/09/03 03:38:15;;;;;;;4.90;0.82;;;16.50;51.40;;;;;;9172793;19;20945;-65
2022/09/03 03:41:22;;;;;;;2.15;1.00;;;16.50;51.40;;;;;;9176905;19;20025;-68
2022/09/03 03:44:28;;;;;;;2.75;0.98;;;16.40;51.50;;;;;;9176352;19;20015;-66
2022/09/03 03:47:33;;;;;;;1.52;1.08;;;16.40;51.50;;;;;;9176118;19;20451;-67
2022/09/03 03:50:40;;;;;;;1.77;1.00;;;16.40;51.60;;;;;;9175048;19;20027;-66
2022/09/03 03:53:46;;;;;;;5.25;1.10;;;16.40;51.70;;;;;;9172901;19;20037;-66
2022/09/03 03:56:51;;;;;;;3.55;0.90;;;16.30;51.70;;;;;;9176928;19;20026;-67
2022/09/03 03:59:59;;;;;;;1.98;1.00;;;16.30;51.70;;;;;;9175961;19;20029;-67
2022/09/03 04:03:04;;;;;;;3.08;2.13;;;16.30;51.70;;;;;;9175962;19;20018;-67
2022/09/03 04:06:14;;;;;;;2.33;0.80;;;16.20;51.80;;;;;;9174811;19;20014;-67
2022/09/03 04:09:19;;;;;;;2.40;0.98;;;16.20;51.90;;;;;;9175202;19;20483;-67
2022/09/03 04:12:24;;;;;;;4.72;0.82;;;16.20;51.90;;;;;;9175865;19;20099;-66
2022/09/03 04:15:29;;;;;;;2.08;1.20;;;16.20;51.90;;;;;;9176113;19;20026;-66
2022/09/03 04:18:36;;;;;;;4.13;1.05;;;16.10;52.00;;;;;;9176584;19;20021;-67
2022/09/03 04:21:43;;;;;;;1.27;0.88;;;16.10;52.00;;;;;;9176118;19;20019;-67
2022/09/03 04:24:48;;;;;;;4.07;1.08;;;16.10;52.10;;;;;;9175565;19;20018;-67
2022/09/03 04:27:54;;;;;;;3.08;0.98;;;16.10;52.20;;;;;;9175168;19;20026;-67
2022/09/03 04:31:03;;;;;;;1.92;1.00;;;16.00;52.10;;;;;;9173376;19;20024;-67
2022/09/03 04:34:09;;;;;;;3.97;0.80;;;16.00;52.20;;;;;;9175259;19;20018;-68
2022/09/03 04:37:18;;;;;;;1.58;0.98;;;16.00;52.20;;;;;;9172591;19;20010;-67
2022/09/03 04:40:23;;;;;;;1.77;0.88;;;15.90;52.30;;;;;;9174242;19;20058;-67
2022/09/03 04:43:29;;;;;;;4.47;1.00;;;15.90;52.30;;;;;;9175101;19;20026;-66
2022/09/03 04:46:34;;;;;;;2.28;1.02;;;15.90;52.30;;;;;;9174471;19;20422;-67
2022/09/03 04:49:39;;;;;;;0.70;0.70;;;15.90;52.40;;;;;;9173035;19;20373;-69
2022/09/03 04:52:46;;;;;;;4.57;1.08;;;15.80;52.40;;;;;;9175323;19;20369;-66
2022/09/03 04:55:51;;;;;;;3.03;0.90;;;15.80;52.50;;;;;;9174312;19;20019;-66
2022/09/03 04:58:58;;;;;;;3.25;1.10;;;15.80;52.50;;;;;;9174570;19;20046;-67
2022/09/03 05:02:05;;;;;;;2.47;1.48;;;15.70;52.50;;;;;;9174883;19;20019;-66
2022/09/03 05:05:10;;;;;;;5.40;1.00;;;15.70;52.60;;;;;;9172900;19;20023;-68
2022/09/03 05:08:18;;;;;;;1.80;0.80;;;15.70;52.70;;;;;;9174782;19;20352;-67
2022/09/03 05:11:23;;;;;;;3.45;1.10;;;15.70;52.70;;;;;;9176822;19;20022;-66
2022/09/03 05:14:28;;;;;;;3.58;1.13;;;15.60;52.70;;;;;;9182814;19;20021;-67
2022/09/03 05:17:33;;;;;;;2.03;1.08;;;15.60;52.80;;;;;;9180682;19;20007;-66
2022/09/03 05:20:41;;;;;;;6.53;0.80;;;15.60;52.80;;;;;;9183216;19;20015;-67
2022/09/03 05:23:51;;;;;;;1.02;0.60;;;15.60;52.90;;;;;;9181575;19;20029;-67
2022/09/03 05:26:56;;;;;;;3.28;0.90;;;15.50;53.00;;;;;;9182775;19;20477;-67
2022/09/03 05:30:01;;;;;;;1.15;0.70;;;15.50;53.00;;;;;;9182933;19;20038;-67
2022/09/03 05:33:07;;;;;;;1.85;0.90;;;15.50;53.00;;;;;;9188308;19;20471;-67
2022/09/03 05:36:14;;;;;;;4.95;0.75;;;15.50;53.10;;;;;;9181522;19;20011;-67
2022/09/03 05:39:22;;;;;;;2.75;1.00;;;15.50;53.20;;;;;;9187089;19;20022;-67
2022/09/03 05:42:27;;;;;;;6.47;0.80;;;15.50;53.20;;;;;;9188145;19;20078;-66
2022/09/03 05:45:33;;;;;;;6.05;1.10;;;15.50;53.20;;;;;;9184735;19;20079;-66
2022/09/03 05:48:40;;;;;;;1.52;0.75;;;15.50;53.30;;;;;;9187426;19;20019;-67
2022/09/03 05:51:45;;;;;;;4.10;0.75;;;15.50;53.30;;;;;;9183100;19;20349;-66
2022/09/03 05:54:52;;;;;;;5.53;1.10;;;15.50;53.40;;;;;;9186880;19;20019;-67
2022/09/03 05:57:57;;;;;;;5.97;1.10;;;15.40;53.40;;;;;;9187214;19;20038;-67
2022/09/03 06:01:11;;;;;;;1.20;0.90;;;15.40;53.40;;;;;;9186647;19;20479;-67
2022/09/03 06:04:17;;;;;;;0.95;0.75;;;15.50;53.60;;;;;;9187101;19;20018;-67
2022/09/03 06:07:22;;;;;;;2.90;1.30;;;15.50;53.60;;;;;;9186510;19;20478;-68
2022/09/03 06:10:30;;;;;;;5.63;0.90;;;15.50;53.60;;;;;;9185024;19;20015;-68
2022/09/03 06:13:44;;;;;;;2.88;0.70;;;15.50;53.70;;;;;;9186299;19;20011;-67
2022/09/03 06:16:51;;;;;;;7.05;1.05;;;15.50;53.70;;;;;;9186871;19;20022;-66
2022/09/03 06:19:57;;;;;;;6.18;1.10;;;15.60;53.80;;;;;;9186575;19;20431;-67
2022/09/03 06:23:01;;;;;;;1.20;1.00;;;15.60;53.80;;;;;;9185568;19;20019;-69
2022/09/03 06:26:11;;;;;;;0.77;0.60;;;15.70;53.90;;;;;;9186606;19;20022;-67
2022/09/03 06:29:19;;;;;;;1.05;0.73;;;15.80;54.60;;;;;;9185494;19;20022;-66
2022/09/03 06:32:23;;;;;;;2.33;0.88;;;15.80;53.90;;;;;;9186246;19;20333;-65
2022/09/03 06:35:28;;;;;;;2.20;1.10;;;15.90;54.00;;;;;;9185793;19;20480;-68
2022/09/03 06:38:40;;;;;;;1.35;1.10;;;16.00;54.00;;;;;;9181765;19;20019;-67
2022/09/03 06:41:50;;;;;;;3.28;1.20;;;16.10;54.10;;;;;;9182237;19;20018;-67
2022/09/03 06:45:03;;;;;;;1.88;0.90;;;16.20;54.00;;;;;;9182914;19;20022;-68
2022/09/03 06:48:08;;;;;;;2.00;0.90;;;16.30;54.00;;;;;;9184614;19;20019;-67
2022/09/03 06:51:15;;;;;;;5.22;1.48;;;16.50;54.10;;;;;;9182065;19;20018;-68
2022/09/03 06:54:20;;;;;;;1.23;0.98;;;16.60;54.10;;;;;;9183746;19;20018;-68
2022/09/03 06:57:28;;;;;;;1.88;1.50;;;16.70;54.00;;;;;;9183180;19;20017;-68
2022/09/03 07:00:33;;;;;;;3.83;1.08;;;16.90;54.10;;;;;;9185836;19;20023;-67
2022/09/03 07:03:39;;;;;;;1.67;1.17;;;17.00;54.00;;;;;;9184340;19;20546;-67
2022/09/03 07:06:45;;;;;;;3.72;0.80;;;17.10;54.00;;;;;;9184415;19;20014;-68
2022/09/03 07:09:51;;;;;;;1.20;0.85;;;17.20;53.90;;;;;;9183705;19;20022;-68
2022/09/03 07:12:58;;;;;;;3.45;0.85;;;17.40;53.90;;;;;;9184144;19;20022;-68
2022/09/03 07:16:06;;;;;;;8.50;1.20;;;17.50;53.80;;;;;;9183537;19;20022;-68
2022/09/03 07:19:12;;;;;;;3.47;0.95;;;17.60;53.70;;;;;;9183181;19;20503;-67
2022/09/03 07:22:17;;;;;;;4.32;0.98;;;17.70;53.70;;;;;;9182150;19;20478;-70
2022/09/03 07:25:22;;;;;;;1.92;0.90;;;17.90;53.60;;;;;;9181232;19;20022;-68
2022/09/03 07:28:31;;;;;;;2.65;1.23;;;18.00;53.60;;;;;;9181848;19;20022;-69
2022/09/03 07:31:39;;;;;;;6.75;1.75;;;18.20;53.60;;;;;;9179515;19;20019;-68
2022/09/03 07:34:44;;;;;;;1.50;0.77;;;18.30;53.50;;;;;;9180768;19;20775;-70
2022/09/03 07:37:49;;;;;;;5.63;1.10;;;18.40;53.40;;;;;;9176262;19;20448;-69
2022/09/03 07:40:59;;;;;;;3.08;1.10;;;18.50;53.40;;;;;;9180433;19;20468;-70
2022/09/03 07:44:07;;;;;;;6.90;1.30;;;18.60;53.30;;;;;;9181816;19;20010;-69
2022/09/03 07:47:13;;;;;;;2.47;0.98;;;18.60;53.20;;;;;;9181949;19;20018;-69
2022/09/03 07:50:25;;;;;;;8.15;1.00;;;18.80;53.20;;;;;;9182722;19;20052;-68
2022/09/03 07:53:30;;;;;;;4.45;0.95;;;18.90;53.20;;;;;;9182285;19;20014;-67
2022/09/03 07:56:36;;;;;;;3.67;0.90;;;19.00;53.20;;;;;;9181201;19;20018;-68
2022/09/03 07:59:44;;;;;;;1.45;0.80;;;19.10;53.20;;;;;;9181563;19;20018;-68
2022/09/03 08:02:49;;;;;;;1.13;0.77;;;19.10;53.10;;;;;;9181517;19;20490;-67
2022/09/03 08:06:02;;;;;;;1.35;0.73;;;19.30;53.10;;;;;;9181460;19;20021;-67
2022/09/03 08:09:10;;;;;;;6.53;0.90;;;19.40;53.10;;;;;;9182258;19;20014;-69
2022/09/03 08:12:15;;;;;;;5.63;1.00;;;19.50;52.90;;;;;;9177927;19;20023;-68
2022/09/03 08:15:22;;;;;;;2.53;0.77;;;19.70;52.80;;;;;;9181260;19;20479;-67
2022/09/03 08:18:36;;;;;;;3.40;0.98;;;19.80;53.30;;;;;;9179406;19;20014;-68
2022/09/03 08:21:42;;;;;;;1.52;0.80;;;19.90;52.70;;;;;;9181095;19;20046;-69
2022/09/03 08:24:47;;;;;;;4.15;1.02;;;20.10;52.60;;;;;;9180863;19;20030;-69
2022/09/03 08:27:52;;;;;;;2.00;0.90;;;20.30;52.60;;;;;;9180418;19;20034;-69
2022/09/03 08:31:00;;;;;;;4.40;1.00;;;20.40;52.50;;;;;;9179295;19;20015;-67
2022/09/03 08:34:10;;;;;;;0.77;0.70;;;20.60;52.40;;;;;;9180823;19;20018;-69
2022/09/03 08:37:15;;;;;;;2.63;1.10;;;20.90;52.30;;;;;;9176771;19;20022;-68
2022/09/03 08:40:21;;;;;;;4.47;0.90;;;21.10;52.10;;;;;;9180227;19;20491;-71
2022/09/03 08:43:26;;;;;;;7.32;1.10;;;21.30;52.00;;;;;;9179974;19;20010;-68
2022/09/03 08:46:45;;;;;;;8.75;1.77;;;21.60;51.80;;;;;;9180538;19;20014;-69
2022/09/03 08:49:54;;;;;;;3.20;1.00;;;21.90;51.60;;;;;;9180009;19;20338;-67
2022/09/03 08:53:05;;;;;;;6.72;1.27;;;22.20;51.50;;;;;;9178564;19;20015;-69
2022/09/03 08:56:14;;;;;;;5.32;1.27;;;22.50;51.20;;;;;;9180839;19;20010;-70
2022/09/03 08:59:20;;;;;;;1.70;1.10;;;22.80;51.00;;;;;;9180815;19;20029;-70
2022/09/03 09:02:43;;;;;;;4.32;0.95;;;23.00;50.70;;;;;;9179368;19;20017;-69
2022/09/03 09:05:53;;;;;;;4.13;1.00;;;23.30;50.50;;;;;;9180428;19;20029;-68
2022/09/03 09:09:09;;;;;;;6.13;1.30;;;23.50;50.30;;;;;;9179908;19;20022;-68
2022/09/03 09:12:24;;;;;;;6.63;1.23;;;23.70;50.00;;;;;;9177781;19;20022;-68
2022/09/03 09:15:42;;;;;;;2.15;0.95;;;23.90;49.80;;;;;;9180306;19;20022;-70
2022/09/03 09:19:03;;;;;;;2.00;0.80;;;24.20;49.70;;;;;;9180450;19;20464;-69
2022/09/03 09:22:12;;;;;;;2.67;1.05;;;24.40;49.30;;;;;;9177998;19;20015;-69
2022/09/03 09:25:21;;;;;;;3.78;1.20;;;24.60;49.20;;;;;;9179039;19;20022;-68
2022/09/03 09:28:31;;;;;;;4.47;1.23;;;24.80;49.00;;;;;;9179058;19;20018;-69
2022/09/03 09:31:36;;;;;;;6.60;1.17;;;25.00;48.90;;;;;;9176653;19;20051;-69
2022/09/03 09:34:43;;;;;;;7.60;1.17;;;25.20;48.70;;;;;;9178886;19;20531;-69
2022/09/03 09:37:55;;;;;;;;;;;25.30;48.50;;;;;;9175945;19;20022;-69
2022/09/03 09:41:11;;;;;;;2.03;1.10;;;25.50;48.60;;;;;;9175823;19;19929;-71
2022/09/03 09:44:21;;;;;;;1.88;1.00;;;25.70;48.20;;;;;;9178957;19;20353;-68
2022/09/03 09:47:30;;;;;;;4.65;1.05;;;25.90;48.10;;;;;;9178206;19;20018;-69
2022/09/03 09:50:38;;;;;;;3.03;0.90;;;26.10;48.00;;;;;;9178256;19;20015;-70
2022/09/03 09:53:43;;;;;;;6.47;0.90;;;26.30;47.70;;;;;;9174763;19;20014;-69
2022/09/03 09:57:00;;;;;;;3.63;1.05;;;26.50;47.60;;;;;;9182011;19;20479;-71
2022/09/03 10:00:11;;;;;;;5.15;1.00;;;26.60;47.30;;;;;;9187414;19;20019;-69
2022/09/03 10:03:16;;;;;;;2.45;0.80;;;26.80;47.20;;;;;;9186791;19;20467;-70
2022/09/03 10:09:43;;;;;;;7.13;1.40;;;27.10;46.60;;;;;;9187574;19;20416;-68
2022/09/03 10:12:54;;;;;;;0.80;0.63;;;27.20;46.50;;;;;;9183249;19;20003;-71
2022/09/03 10:16:04;;;;;;;3.47;0.80;;;27.30;46.30;;;;;;9186677;19;20011;-70
2022/09/03 10:19:14;;;;;;;3.83;0.65;;;27.40;46.10;;;;;;9186803;19;20010;-70
2022/09/03 10:22:25;;;;;;;4.35;1.10;;;27.50;45.90;;;;;;9187785;19;20014;-70
2022/09/03 10:25:59;;;;;;;2.15;0.80;;;27.60;45.80;;;;;;9185293;19;20685;-70
2022/09/03 10:29:07;;;;;;;2.05;0.70;;;27.70;45.40;;;;;;9186398;19;20472;-68
2022/09/03 10:32:32;;;;;;;4.13;1.10;;;27.80;45.50;;;;;;9183279;19;20022;-68
2022/09/03 10:35:48;;;;;;;2.75;0.80;;;28.00;45.10;;;;;;9186026;19;20026;-70
2022/09/03 10:39:06;;;;;;;4.18;1.02;;;28.10;45.20;;;;;;9180517;19;20014;-70
2022/09/03 10:42:22;;;;;;;2.75;1.05;;;28.20;44.80;;;;;;9186339;19;20014;-69
2022/09/03 10:45:38;;;;;;;5.30;0.88;;;28.30;44.70;;;;;;9185290;19;20486;-68
2022/09/03 10:48:54;;;;;;;2.45;0.77;;;28.40;44.60;;;;;;9185414;19;20352;-68
2022/09/03 10:52:05;;;;;;;2.55;0.82;;;28.50;44.40;;;;;;9183086;19;20015;-70
2022/09/03 10:55:20;;;;;;;2.33;0.80;;;28.70;44.40;;;;;;9181815;19;20014;-72
2022/09/03 10:58:38;;;;;;;7.78;0.80;;;28.70;44.10;;;;;;9182990;19;20022;-71
2022/09/03 11:01:53;;;;;;;1.40;0.80;;;28.80;44.00;;;;;;9182959;19;20042;-69
2022/09/03 11:05:04;;;;;;;1.88;0.60;;;28.90;43.90;;;;;;9182442;19;20025;-69
2022/09/03 11:08:15;;;;;;;5.38;0.85;;;29.00;43.80;;;;;;9181096;19;20010;-68
2022/09/03 11:11:26;;;;;;;4.05;1.10;;;29.10;43.70;;;;;;9185185;19;20030;-73
2022/09/03 11:14:36;;;;;;;2.83;0.80;;;29.20;43.50;;;;;;9182865;19;20018;-69
2022/09/03 11:17:48;;;;;;;2.47;0.82;;;29.30;43.40;;;;;;9181080;19;20017;-70
2022/09/03 11:20:56;;;;;;;1.00;0.57;;;29.30;43.20;;;;;;9181781;19;20054;-70
2022/09/03 11:24:09;;;;;;;3.22;0.90;;;29.40;43.20;;;;;;9177771;19;20025;-69
2022/09/03 11:27:27;;;;;;;3.40;0.77;;;29.50;43.00;;;;;;9181937;19;20017;-70
2022/09/03 11:30:50;;;;;;;2.08;0.80;;;29.50;42.80;;;;;;9180728;19;20018;-68
2022/09/03 11:34:01;;;;;;;1.17;0.80;;;29.60;42.80;;;;;;9180863;19;20495;-68
2022/09/03 11:37:19;;;;;;;1.20;0.68;;;29.70;42.70;;;;;;9178554;19;20026;-68
2022/09/03 11:40:33;;;;;;;4.25;1.00;;;29.80;42.40;;;;;;9181678;19;20014;-71
2022/09/03 11:43:41;;;;;;;7.03;0.93;;;29.80;42.30;;;;;;9179622;19;20029;-69
2022/09/03 11:46:56;;;;;;;2.13;0.90;;;29.90;42.30;;;;;;9181100;19;20022;-71
2022/09/03 11:50:10;;;;;;;4.95;0.95;;;29.90;42.00;;;;;;9176678;19;20018;-68
2022/09/03 11:53:28;;;;;;;9.98;0.80;;;29.90;41.90;;;;;;9177246;19;20494;-67
2022/09/03 11:56:35;;;;;;;6.63;0.90;;;30.00;41.70;;;;;;9180334;19;20056;-72
2022/09/03 11:59:45;;;;;;;1.40;0.80;;;30.00;41.90;;;;;;9180485;19;20019;-71
2022/09/03 12:02:53;;;;;;;7.03;1.10;;;30.10;41.70;;;;;;9178223;19;20026;-71
2022/09/03 12:06:25;;;;;;;1.98;0.73;;;30.10;42.20;;;;;;9180639;19;20010;-70
2022/09/03 12:09:55;;;;;;;1.83;0.88;;;30.10;41.40;;;;;;9180901;19;20018;-70
2022/09/03 12:13:17;;;;;;;5.28;0.70;;;30.20;41.30;;;;;;9180125;19;20382;-70
2022/09/03 12:16:42;;;;;;;5.05;1.25;;;30.20;41.20;;;;;;9181582;19;20019;-72
2022/09/03 12:19:54;;;;;;;3.20;0.70;;;30.20;41.10;;;;;;9181397;19;20017;-73
2022/09/03 12:23:00;;;;;;;2.40;0.80;;;30.20;41.10;;;;;;9179794;19;20132;-70
2022/09/03 12:26:13;;;;;;;3.15;1.00;;;30.30;41.10;;;;;;9181752;19;20468;-71
2022/09/03 12:29:26;;;;;;;2.40;0.80;;;30.30;40.90;;;;;;9181325;19;20021;-73
2022/09/03 12:32:39;;;;;;;5.32;0.73;;;30.30;40.60;;;;;;9181547;19;20019;-73
2022/09/03 12:35:44;;;;;;;2.22;0.82;;;30.30;40.60;;;;;;9180939;19;20015;-70
2022/09/03 12:39:10;;;;;;;1.27;0.82;;;30.40;40.70;;;;;;9181636;19;20090;-70
2022/09/03 12:42:24;;;;;;;2.95;0.80;;;30.40;40.40;;;;;;9179506;19;20010;-72
2022/09/03 12:45:28;;;;;;;1.52;0.85;;;30.50;40.50;;;;;;9178974;19;20026;-70
2022/09/03 12:49:02;;;;;;;4.95;0.80;;;30.50;40.50;;;;;;9178750;19;20443;-73
2022/09/03 12:52:32;;;;;;;5.53;0.68;;;30.50;40.10;;;;;;9179590;19;20029;-73
2022/09/03 12:55:41;;;;;;;2.75;0.80;;;30.60;40.20;;;;;;9178929;19;20019;-72
2022/09/03 12:58:52;;;;;;;1.35;0.70;;;30.60;40.00;;;;;;9180201;19;20017;-71
2022/09/03 13:02:02;;;;;;;1.95;0.65;;;30.60;40.00;;;;;;9179869;19;20360;-72
2022/09/03 13:05:17;;;;;;;6.18;0.80;;;30.60;40.00;;;;;;9176265;19;20055;-74
2022/09/03 13:08:26;;;;;;;3.50;0.98;;;30.50;39.70;;;;;;9176059;19;20102;-74
2022/09/03 13:11:36;;;;;;;1.67;0.70;;;30.50;39.80;;;;;;9174873;19;20622;-74
2022/09/03 13:14:46;;;;;;;4.05;0.70;;;30.50;39.80;;;;;;9170861;19;20030;-70
2022/09/03 13:18:08;;;;;;;6.43;1.30;;;30.50;39.70;;;;;;9174707;19;20018;-70
2022/09/03 13:21:23;;;;;;;2.25;1.13;;;30.50;39.60;;;;;;9175337;19;20017;-73
2022/09/03 13:24:55;;;;;;;2.58;1.10;;;30.60;39.70;;;;;;9176294;19;20018;-73
2022/09/03 13:28:10;;;;;;;9.10;1.02;;;30.50;39.50;;;;;;9176789;19;20106;-73
2022/09/03 13:31:27;;;;;;;2.55;0.70;;;30.50;39.60;;;;;;9180643;19;20011;-72
2022/09/03 13:34:36;;;;;;;4.18;0.85;;;30.50;39.60;;;;;;9184080;19;20029;-70
2022/09/03 13:37:47;;;;;;;3.70;0.95;;;30.50;39.70;;;;;;9184172;19;20014;-70
2022/09/03 13:41:01;;;;;;;3.28;0.70;;;30.40;39.40;;;;;;9184125;19;20089;-72
2022/09/03 13:44:12;;;;;;;2.65;1.00;;;30.40;39.50;;;;;;9186645;19;20010;-72
2022/09/03 13:47:27;;;;;;;4.63;1.10;;;30.40;39.50;;;;;;9186125;19;20011;-71
2022/09/03 13:50:40;;;;;;;0.80;0.70;;;30.30;39.30;;;;;;9187512;19;20066;-70
2022/09/03 13:53:58;;;;;;;10.70;0.90;;;30.30;39.50;;;;;;9181211;19;20026;-70
2022/09/03 13:57:07;;;;;;;4.43;0.80;;;30.30;39.40;;;;;;9181074;19;20022;-71
2022/09/03 14:00:14;;;;;;;1.63;0.60;;;30.20;39.40;;;;;;9183215;19;20037;-70
2022/09/03 14:03:32;;;;;;;3.30;0.90;;;30.20;39.40;;;;;;9181105;19;20025;-71
2022/09/03 14:06:43;;;;;;;3.15;0.65;;;30.10;39.30;;;;;;9180542;19;20705;-69
2022/09/03 14:09:59;;;;;;;1.05;0.73;;;30.10;39.20;;;;;;9181165;19;20022;-75
2022/09/03 14:13:13;;;;;;;3.38;0.70;;;30.00;39.20;;;;;;9177089;19;20025;-70
2022/09/03 14:16:29;;;;;;;3.58;1.00;;;29.90;39.20;;;;;;9179538;19;20022;-71
2022/09/03 14:19:43;;;;;;;5.53;1.15;;;29.90;39.20;;;;;;9182600;19;20010;-72
2022/09/03 14:22:54;;;;;;;6.47;1.30;;;29.80;39.20;;;;;;9182133;19;20033;-71
2022/09/03 14:26:07;;;;;;;4.50;1.35;;;29.80;39.40;;;;;;9183100;19;20535;-71
2022/09/03 14:29:18;;;;;;;1.73;0.90;;;29.80;39.50;;;;;;9182657;19;20029;-71
2022/09/03 14:32:31;;;;;;;1.65;0.90;;;29.70;39.40;;;;;;9181581;19;20015;-72
2022/09/03 14:35:57;;;;;;;2.70;0.90;;;29.70;39.40;;;;;;9179121;19;20022;-71
2022/09/03 14:39:18;;;;;;;3.90;0.80;;;29.70;39.40;;;;;;9180945;19;20021;-72
2022/09/03 14:43:00;;;;;;;2.60;1.02;;;29.60;39.50;;;;;;9180792;19;20394;-72
2022/09/03 14:46:16;;;;;;;3.92;1.20;;;29.50;39.40;;;;;;9184833;19;20106;-72
2022/09/03 14:49:42;;;;;;;1.30;0.73;;;29.50;39.50;;;;;;9185300;19;20033;-69
2022/09/03 14:53:14;;;;;;;3.25;0.75;;;29.40;39.50;;;;;;9185759;19;20015;-69
2022/09/03 14:56:25;;;;;;;1.63;0.90;;;29.30;39.40;;;;;;9185258;19;20031;-67
2022/09/03 14:59:52;;;;;;;2.03;1.10;;;29.30;39.60;;;;;;9184994;19;20011;-73
2022/09/03 15:03:26;;;;;;;1.33;0.82;;;29.20;39.50;;;;;;9185275;19;20480;-71
2022/09/03 15:06:45;;;;;;;1.20;0.80;;;29.10;39.50;;;;;;9184205;19;20022;-72
2022/09/03 15:10:01;;;;;;;3.83;1.55;;;29.00;39.70;;;;;;9185245;19;20010;-72
2022/09/03 15:13:13;;;;;;;4.45;1.27;;;29.00;39.80;;;;;;9184592;19;20023;-69
2022/09/03 15:16:38;;;;;;;10.35;1.52;;;28.90;39.80;;;;;;9182710;19;20033;-70
2022/09/03 15:20:10;;;;;;;9.45;1.20;;;28.90;39.90;;;;;;9184562;19;20014;-71
2022/09/03 15:23:51;;;;;;;2.92;1.10;;;28.90;40.00;;;;;;9184299;19;20053;-71
2022/09/03 15:27:07;;;;;;;7.45;2.05;;;28.80;40.00;;;;;;9183642;19;20015;-69
2022/09/03 15:30:13;;;;;;;7.63;1.00;;;28.80;40.20;;;;;;9184293;19;20498;-72
2022/09/03 15:33:34;;;;;;;5.00;1.00;;;28.80;40.10;;;;;;9183578;19;20096;-73
2022/09/03 15:36:43;;;;;;;7.15;1.00;;;28.80;40.10;;;;;;9179236;19;20050;-71
2022/09/03 15:39:55;;;;;;;4.07;1.10;;;28.70;40.10;;;;;;9184160;19;20015;-71
2022/09/03 15:43:07;;;;;;;8.02;1.27;;;28.60;40.20;;;;;;9184067;19;20022;-72
2022/09/03 15:46:30;;;;;;;3.83;1.20;;;28.60;40.20;;;;;;9183631;19;20019;-72
2022/09/03 15:50:00;;;;;;;8.53;1.20;;;28.50;40.30;;;;;;9181643;19;20345;-71
2022/09/03 15:53:17;;;;;;;7.75;1.10;;;28.40;40.30;;;;;;9182420;19;20886;-73
2022/09/03 15:56:28;;;;;;;3.53;0.80;;;28.40;40.50;;;;;;9180286;19;20013;-72
2022/09/03 15:59:41;;;;;;;7.25;1.17;;;28.30;40.50;;;;;;9183025;19;20563;-73
2022/09/03 16:02:49;;;;;;;8.18;1.10;;;28.20;40.50;;;;;;9182805;19;20472;-68
2022/09/03 16:06:01;;;;;;;1.17;0.93;;;28.10;40.50;;;;;;9182634;19;20018;-72
2022/09/03 16:09:11;;;;;;;1.58;1.00;;;28.10;40.70;;;;;;9182280;19;20057;-69
2022/09/03 16:12:29;;;;;;;3.60;1.30;;;28.10;40.80;;;;;;9181639;19;20019;-69
2022/09/03 16:15:39;;;;;;;4.72;1.60;;;28.00;40.80;;;;;;9180163;19;20019;-72
2022/09/03 16:18:55;;;;;;;5.60;2.15;;;27.90;41.00;;;;;;9180648;19;20022;-72
2022/09/03 16:22:08;;;;;;;3.70;1.40;;;27.80;41.10;;;;;;9181803;19;20464;-69
2022/09/03 16:25:18;;;;;;;7.03;1.20;;;27.80;41.20;;;;;;9181947;19;20014;-70
2022/09/03 16:28:31;;;;;;;2.40;0.93;;;27.70;41.20;;;;;;9181135;19;20030;-69
2022/09/03 16:31:50;;;;;;;3.13;1.20;;;27.70;41.20;;;;;;9181446;19;20476;-69
2022/09/03 16:35:08;;;;;;;3.85;1.15;;;27.60;41.20;;;;;;9180673;19;20014;-71
2022/09/03 16:38:27;;;;;;;1.20;0.80;;;27.60;41.30;;;;;;9176610;19;20093;-71
2022/09/03 16:41:37;;;;;;;2.92;1.23;;;27.50;41.30;;;;;;9178966;19;20014;-73